Terminal Aerodrome Forecast
Issued by NWS

Home | Current Version | Previous Version | Text Only | Print | Product List | Glossary On
Versions: 1 2 3 4 5 6 7 8 9 10 11 12 13 14 15 16 17 18 19 20 21
000
FTUS41 KAKQ 122300
TAFPHF
TAF
KPHF 122320Z 1300/1324 11005KT P6SM SCT050
     FM130200 16005KT P6SM SCT250
     FM130700 20004KT 4SM BR BKN020
     FM131300 22011KT P6SM BKN250=

USA.gov is the U.S. government's official web portal to all federal, state and local government web resources and services.